Time;durP1;ratioP1;P1;durP2;ratioP2;P2;SDS_P1;SDS_P2;PMS_P1;PMS_P2;Temp;Humidity;BMP_temperature;BMP_pressure;BME280_temperature;BME280_humidity;BME280_pressure;Samples;Min_cycle;Max_cycle;Signal;HPM_P1;HPM_P2
2020/12/22 00:01:32;;;;;;;1.30;1.30;;;;;;;;;;5096358;28;20236;-81
2020/12/22 00:03:58;;;;;;;1.43;1.10;;;;;;;;;;5096500;28;20606;-80
2020/12/22 00:06:24;;;;;;;1.17;1.17;;;;;;;;;;5096024;28;20225;-79
2020/12/22 00:08:50;;;;;;;1.30;1.30;;;;;;;;;;5096298;28;20225;-81
2020/12/22 00:11:16;;;;;;;1.43;1.33;;;;;;;;;;5095950;28;20230;-81
2020/12/22 00:13:43;;;;;;;1.40;1.40;;;;;;;;;;5096239;28;20242;-82
2020/12/22 00:16:09;;;;;;;1.33;1.33;;;;;;;;;;5096149;28;20634;-80
2020/12/22 00:18:36;;;;;;;1.57;1.47;;;;;;;;;;5095924;28;20222;-82
2020/12/22 00:21:02;;;;;;;1.70;1.60;;;;;;;;;;5096195;28;20238;-81
2020/12/22 00:23:28;;;;;;;1.20;1.20;;;;;;;;;;5095723;28;20237;-82
2020/12/22 00:25:54;;;;;;;2.10;1.30;;;;;;;;;;5096221;28;20525;-81
2020/12/22 00:28:20;;;;;;;1.40;1.40;;;;;;;;;;5095704;28;20617;-82
2020/12/22 00:30:49;;;;;;;1.57;1.53;;;;;;;;;;5096077;28;20233;-81
2020/12/22 00:33:15;;;;;;;1.80;1.70;;;;;;;;;;5095753;28;20253;-80
2020/12/22 00:35:42;;;;;;;1.40;1.40;;;;;;;;;;5096008;28;20233;-81
2020/12/22 00:38:08;;;;;;;1.60;1.60;;;;;;;;;;5095613;28;20229;-80
2020/12/22 00:40:34;;;;;;;1.83;1.80;;;;;;;;;;5095338;28;20697;-81
2020/12/22 00:43:01;;;;;;;1.70;1.60;;;;;;;;;;5095500;28;20229;-80
2020/12/22 00:45:27;;;;;;;1.73;1.70;;;;;;;;;;5095239;28;20225;-81
2020/12/22 00:47:53;;;;;;;1.80;1.80;;;;;;;;;;5095835;28;20240;-80
2020/12/22 00:50:19;;;;;;;2.00;1.90;;;;;;;;;;5094828;28;20233;-80
2020/12/22 00:52:46;;;;;;;2.00;1.90;;;;;;;;;;5095384;28;20229;-81
2020/12/22 00:55:12;;;;;;;1.73;1.70;;;;;;;;;;5095038;28;20229;-81
2020/12/22 00:57:38;;;;;;;2.03;1.83;;;;;;;;;;5095645;28;20245;-81
2020/12/22 01:00:04;;;;;;;1.57;1.50;;;;;;;;;;5095014;28;20240;-82
2020/12/22 01:02:31;;;;;;;2.17;2.00;;;;;;;;;;5095438;28;20222;-80
2020/12/22 01:04:57;;;;;;;1.80;1.80;;;;;;;;;;5094945;28;20229;-81
2020/12/22 01:07:23;;;;;;;1.73;1.50;;;;;;;;;;5095721;28;20232;-81
2020/12/22 01:09:50;;;;;;;1.60;1.60;;;;;;;;;;5095253;28;20233;-81
2020/12/22 01:12:16;;;;;;;2.20;1.83;;;;;;;;;;5095493;28;20236;-80
2020/12/22 01:14:42;;;;;;;1.80;1.70;;;;;;;;;;5094918;28;20229;-81
2020/12/22 01:17:08;;;;;;;2.20;2.00;;;;;;;;;;5095218;28;20241;-81
2020/12/22 01:19:34;;;;;;;1.90;1.80;;;;;;;;;;5095026;28;20237;-81
2020/12/22 01:22:00;;;;;;;1.83;1.73;;;;;;;;;;5095291;28;20260;-81
2020/12/22 01:24:26;;;;;;;1.60;1.50;;;;;;;;;;5094944;28;20632;-81
2020/12/22 01:26:53;;;;;;;1.80;1.70;;;;;;;;;;5095275;28;20238;-81
2020/12/22 01:29:19;;;;;;;1.90;1.80;;;;;;;;;;5094869;28;20229;-81
2020/12/22 01:31:46;;;;;;;1.87;1.67;;;;;;;;;;5094277;28;20606;-81
2020/12/22 01:34:12;;;;;;;1.77;1.77;;;;;;;;;;5094806;28;20252;-81
2020/12/22 01:36:38;;;;;;;1.73;1.57;;;;;;;;;;5094753;28;20264;-80
2020/12/22 01:39:04;;;;;;;4.80;1.73;;;;;;;;;;5095142;28;20230;-83
2020/12/22 01:41:31;;;;;;;1.70;1.60;;;;;;;;;;5094763;28;20225;-83
2020/12/22 01:44:01;;;;;;;3.27;1.53;;;;;;;;;;5094892;28;20210;-83
2020/12/22 01:46:29;;;;;;;1.77;1.67;;;;;;;;;;5094894;28;20194;-83
2020/12/22 01:48:55;;;;;;;1.90;1.80;;;;;;;;;;5094876;28;20241;-80
2020/12/22 01:51:22;;;;;;;3.30;1.60;;;;;;;;;;5094728;28;20206;-80
2020/12/22 01:53:48;;;;;;;1.70;1.60;;;;;;;;;;5094941;28;20233;-81
2020/12/22 01:56:14;;;;;;;1.80;1.80;;;;;;;;;;5094804;28;20241;-81
2020/12/22 01:58:40;;;;;;;2.00;1.67;;;;;;;;;;5094829;28;20236;-81
2020/12/22 02:01:07;;;;;;;1.30;1.30;;;;;;;;;;5094507;28;20226;-82
2020/12/22 02:03:33;;;;;;;1.80;1.70;;;;;;;;;;5094871;28;20278;-81
2020/12/22 02:06:00;;;;;;;1.73;1.63;;;;;;;;;;5097094;28;20205;-82
2020/12/22 02:08:26;;;;;;;1.80;1.70;;;;;;;;;;5098720;28;20244;-81
2020/12/22 02:10:52;;;;;;;1.90;1.80;;;;;;;;;;5097032;28;20198;-79
2020/12/22 02:13:18;;;;;;;2.23;1.40;;;;;;;;;;5098613;28;20244;-80
2020/12/22 02:15:44;;;;;;;1.37;1.37;;;;;;;;;;5098209;28;20225;-80
2020/12/22 02:18:11;;;;;;;1.83;1.73;;;;;;;;;;5098499;28;20253;-81
2020/12/22 02:20:37;;;;;;;1.50;1.50;;;;;;;;;;5098374;28;20228;-81
2020/12/22 02:23:04;;;;;;;1.10;1.10;;;;;;;;;;5098471;28;20240;-82
2020/12/22 02:25:30;;;;;;;1.30;1.20;;;;;;;;;;5097885;28;20206;-80
2020/12/22 02:27:56;;;;;;;1.30;1.30;;;;;;;;;;5098041;28;20245;-82
2020/12/22 02:30:23;;;;;;;1.60;1.50;;;;;;;;;;5098198;28;20229;-82
2020/12/22 02:32:49;;;;;;;1.60;1.50;;;;;;;;;;5097931;28;20241;-81
2020/12/22 02:35:15;;;;;;;1.70;1.60;;;;;;;;;;5097826;28;20213;-81
2020/12/22 02:37:41;;;;;;;1.20;1.20;;;;;;;;;;5098001;28;20246;-81
2020/12/22 02:40:08;;;;;;;1.17;1.17;;;;;;;;;;5098020;28;20237;-81
2020/12/22 02:42:34;;;;;;;1.20;1.20;;;;;;;;;;5097697;28;20233;-81
2020/12/22 02:45:00;;;;;;;1.10;1.10;;;;;;;;;;5097014;28;20225;-82
2020/12/22 02:47:27;;;;;;;2.13;1.20;;;;;;;;;;5097990;28;20229;-81
2020/12/22 02:49:53;;;;;;;1.20;1.20;;;;;;;;;;5097703;28;20244;-81
2020/12/22 02:52:19;;;;;;;0.90;0.90;;;;;;;;;;5098269;28;20236;-81
2020/12/22 02:54:45;;;;;;;1.20;1.20;;;;;;;;;;5097373;28;20236;-81
2020/12/22 02:57:12;;;;;;;1.10;1.10;;;;;;;;;;5097832;28;20569;-81
2020/12/22 02:59:38;;;;;;;1.10;1.10;;;;;;;;;;5097439;28;20229;-81
2020/12/22 03:02:04;;;;;;;1.90;1.53;;;;;;;;;;5097797;28;20225;-81
2020/12/22 03:04:30;;;;;;;1.03;0.90;;;;;;;;;;5096868;28;20245;-81
2020/12/22 03:06:56;;;;;;;1.40;1.30;;;;;;;;;;5097844;28;20561;-82
2020/12/22 03:09:22;;;;;;;1.80;0.93;;;;;;;;;;5096969;28;20233;-80
2020/12/22 03:11:48;;;;;;;1.00;1.00;;;;;;;;;;5097558;28;20590;-83
2020/12/22 03:14:15;;;;;;;0.80;0.80;;;;;;;;;;5097118;28;20240;-82
2020/12/22 03:16:41;;;;;;;1.90;0.93;;;;;;;;;;5096591;28;20245;-81
2020/12/22 03:19:07;;;;;;;1.17;1.07;;;;;;;;;;5096851;28;20634;-81
2020/12/22 03:21:33;;;;;;;0.90;0.90;;;;;;;;;;5097261;28;20237;-79
2020/12/22 03:23:59;;;;;;;0.80;0.80;;;;;;;;;;5096969;28;20645;-82
2020/12/22 03:26:25;;;;;;;1.43;0.83;;;;;;;;;;5097387;28;20229;-82
2020/12/22 03:28:52;;;;;;;1.27;0.80;;;;;;;;;;5097212;28;20606;-80
2020/12/22 03:31:18;;;;;;;0.90;0.90;;;;;;;;;;5097398;28;20225;-81
2020/12/22 03:33:45;;;;;;;1.20;0.70;;;;;;;;;;5096647;28;20646;-81
2020/12/22 03:36:11;;;;;;;0.60;0.60;;;;;;;;;;5096863;28;20225;-81
2020/12/22 03:38:37;;;;;;;0.80;0.80;;;;;;;;;;5096791;28;20629;-81
2020/12/22 03:41:03;;;;;;;1.10;1.10;;;;;;;;;;5096603;28;20233;-81
2020/12/22 03:43:29;;;;;;;1.03;0.63;;;;;;;;;;5096788;28;20556;-81
2020/12/22 03:45:55;;;;;;;0.67;0.67;;;;;;;;;;5096805;28;20229;-81
2020/12/22 03:48:22;;;;;;;2.07;0.70;;;;;;;;;;5096654;28;20229;-82
2020/12/22 03:50:48;;;;;;;0.47;0.47;;;;;;;;;;5096678;28;20236;-82
2020/12/22 03:53:15;;;;;;;0.70;0.70;;;;;;;;;;5096520;28;20545;-81
2020/12/22 03:55:41;;;;;;;1.90;0.70;;;;;;;;;;5096512;28;20225;-81
2020/12/22 03:58:07;;;;;;;0.80;0.80;;;;;;;;;;5096485;28;20554;-81
2020/12/22 04:00:33;;;;;;;0.70;0.70;;;;;;;;;;5096723;28;20240;-81
2020/12/22 04:02:59;;;;;;;0.80;0.80;;;;;;;;;;5096454;28;20629;-81
2020/12/22 04:05:26;;;;;;;1.70;0.80;;;;;;;;;;5095857;28;20229;-81
2020/12/22 04:07:52;;;;;;;1.40;1.00;;;;;;;;;;5096222;28;20222;-81
2020/12/22 04:10:18;;;;;;;8.13;2.87;;;;;;;;;;5096208;28;20236;-81
2020/12/22 04:12:44;;;;;;;0.50;0.50;;;;;;;;;;5096269;28;20225;-80
2020/12/22 04:15:10;;;;;;;0.53;0.53;;;;;;;;;;5096259;28;20233;-81
2020/12/22 04:17:39;;;;;;;0.50;0.50;;;;;;;;;;5096138;28;20245;-81
2020/12/22 04:20:05;;;;;;;0.57;0.50;;;;;;;;;;5095891;28;20610;-81
2020/12/22 04:22:32;;;;;;;0.60;0.60;;;;;;;;;;5096032;28;20210;-81
2020/12/22 04:24:58;;;;;;;0.30;0.30;;;;;;;;;;5095492;28;20237;-81
2020/12/22 04:27:25;;;;;;;0.60;0.60;;;;;;;;;;5095818;28;20301;-81
2020/12/22 04:29:51;;;;;;;1.87;0.70;;;;;;;;;;5095665;28;20234;-82
2020/12/22 04:32:17;;;;;;;0.40;0.40;;;;;;;;;;5095931;28;20255;-82
2020/12/22 04:34:43;;;;;;;0.50;0.50;;;;;;;;;;5094000;28;20253;-83
2020/12/22 04:37:09;;;;;;;0.67;0.43;;;;;;;;;;5094347;28;20236;-81
2020/12/22 04:39:36;;;;;;;0.40;0.40;;;;;;;;;;5095468;28;20225;-81
2020/12/22 04:42:03;;;;;;;2.10;0.70;;;;;;;;;;5095587;28;20240;-82
2020/12/22 04:44:29;;;;;;;4.23;1.27;;;;;;;;;;5095521;28;20692;-80
2020/12/22 04:46:55;;;;;;;3.27;1.63;;;;;;;;;;5095591;28;20241;-81
2020/12/22 04:49:22;;;;;;;2.23;1.63;;;;;;;;;;5095585;28;20233;-81
2020/12/22 04:51:49;;;;;;;4.47;1.50;;;;;;;;;;5095811;28;20236;-83
2020/12/22 04:54:16;;;;;;;0.70;0.70;;;;;;;;;;5095335;28;20237;-83
2020/12/22 04:56:44;;;;;;;2.37;0.80;;;;;;;;;;5095725;28;20253;-80
2020/12/22 04:59:10;;;;;;;2.50;0.70;;;;;;;;;;5095231;28;20225;-80
2020/12/22 05:01:37;;;;;;;3.27;1.13;;;;;;;;;;5095466;28;20205;-81
2020/12/22 05:04:03;;;;;;;1.90;0.90;;;;;;;;;;5095131;28;20498;-81
2020/12/22 05:06:29;;;;;;;1.20;1.10;;;;;;;;;;5095127;28;20244;-81
2020/12/22 05:08:55;;;;;;;1.10;1.00;;;;;;;;;;5095246;28;20201;-80
2020/12/22 05:11:21;;;;;;;1.53;0.70;;;;;;;;;;5095452;28;20241;-81
2020/12/22 05:13:48;;;;;;;0.30;0.30;;;;;;;;;;5095291;28;20248;-81
2020/12/22 05:16:14;;;;;;;0.40;0.40;;;;;;;;;;5095402;28;20584;-81
2020/12/22 05:18:40;;;;;;;0.50;0.50;;;;;;;;;;5094737;28;20253;-82
2020/12/22 05:21:06;;;;;;;0.43;0.43;;;;;;;;;;5094788;28;20228;-80
2020/12/22 05:23:33;;;;;;;0.67;0.60;;;;;;;;;;5095086;28;20225;-80
2020/12/22 05:26:00;;;;;;;0.40;0.40;;;;;;;;;;5095233;28;20233;-82
2020/12/22 05:28:27;;;;;;;0.50;0.50;;;;;;;;;;5095024;28;20474;-83
2020/12/22 05:30:53;;;;;;;0.47;0.47;;;;;;;;;;5095279;28;20237;-84
2020/12/22 05:33:20;;;;;;;1.10;0.80;;;;;;;;;;5094855;28;20249;-82
2020/12/22 05:35:46;;;;;;;1.30;1.17;;;;;;;;;;5094405;28;20225;-81
2020/12/22 05:38:13;;;;;;;0.60;0.60;;;;;;;;;;5094773;28;20660;-83
2020/12/22 05:40:39;;;;;;;0.60;0.60;;;;;;;;;;5098313;28;20439;-82
2020/12/22 05:43:06;;;;;;;0.60;0.50;;;;;;;;;;5098887;28;20213;-82
2020/12/22 05:45:32;;;;;;;1.50;0.50;;;;;;;;;;5098750;28;20233;-81
2020/12/22 05:47:59;;;;;;;0.60;0.33;;;;;;;;;;5098910;28;20202;-81
2020/12/22 05:50:26;;;;;;;0.57;0.57;;;;;;;;;;5099114;28;20225;-82
2020/12/22 05:52:53;;;;;;;0.60;0.60;;;;;;;;;;5098861;28;20498;-82
2020/12/22 05:55:26;;;;;;;1.80;0.70;;;;;;;;;;5098670;28;20499;-80
2020/12/22 05:58:05;;;;;;;1.10;0.70;;;;;;;;;;5099115;28;20249;-80
2020/12/22 06:00:31;;;;;;;0.60;0.60;;;;;;;;;;5098353;28;20233;-81
2020/12/22 06:03:03;;;;;;;0.57;0.57;;;;;;;;;;5098907;28;20248;-82
2020/12/22 06:05:31;;;;;;;0.50;0.50;;;;;;;;;;5098329;28;20194;-81
2020/12/22 06:07:57;;;;;;;0.50;0.50;;;;;;;;;;5098666;28;20237;-82
2020/12/22 06:10:25;;;;;;;0.53;0.40;;;;;;;;;;5098275;28;20225;-82
2020/12/22 06:12:57;;;;;;;0.70;0.70;;;;;;;;;;5098120;28;20290;-81
2020/12/22 06:15:23;;;;;;;0.70;0.70;;;;;;;;;;5098321;28;20626;-83
2020/12/22 06:17:49;;;;;;;0.50;0.50;;;;;;;;;;5098374;28;20624;-82
2020/12/22 06:20:17;;;;;;;1.23;0.60;;;;;;;;;;5097982;28;20225;-82
2020/12/22 06:22:44;;;;;;;0.40;0.40;;;;;;;;;;5098230;28;20803;-81
2020/12/22 06:25:11;;;;;;;0.50;0.50;;;;;;;;;;5098086;28;20553;-82
2020/12/22 06:27:37;;;;;;;0.53;0.30;;;;;;;;;;5097773;28;20545;-82
2020/12/22 06:30:03;;;;;;;0.80;0.80;;;;;;;;;;5097697;28;20281;-82
2020/12/22 06:32:29;;;;;;;0.50;0.50;;;;;;;;;;5097780;28;20205;-82
2020/12/22 06:34:56;;;;;;;0.83;0.60;;;;;;;;;;5097958;28;20253;-81
2020/12/22 06:37:23;;;;;;;0.60;0.60;;;;;;;;;;5098039;28;20640;-81
2020/12/22 06:39:50;;;;;;;0.60;0.60;;;;;;;;;;5097003;28;20252;-81
2020/12/22 06:42:34;;;;;;;0.50;0.50;;;;;;;;;;5097431;28;20240;-82
2020/12/22 06:45:15;;;;;;;0.57;0.57;;;;;;;;;;5096429;28;20224;-79
2020/12/22 06:47:41;;;;;;;5.30;0.60;;;;;;;;;;5096754;28;20249;-81
2020/12/22 06:50:07;;;;;;;0.60;0.60;;;;;;;;;;5097908;28;20569;-80
2020/12/22 06:52:34;;;;;;;0.83;0.60;;;;;;;;;;5097229;28;20238;-80
2020/12/22 06:55:02;;;;;;;0.70;0.70;;;;;;;;;;5097857;28;20605;-81
2020/12/22 06:57:40;;;;;;;1.70;0.67;;;;;;;;;;5097012;28;20551;-80
2020/12/22 07:00:07;;;;;;;1.70;0.63;;;;;;;;;;5097515;28;20491;-81
2020/12/22 07:02:34;;;;;;;0.60;0.60;;;;;;;;;;5096516;28;20247;-81
2020/12/22 07:05:00;;;;;;;0.73;0.73;;;;;;;;;;5097749;28;20233;-81
2020/12/22 07:07:51;;;;;;;0.60;0.60;;;;;;;;;;5097709;28;20239;-81
2020/12/22 07:10:20;;;;;;;1.60;0.43;;;;;;;;;;5096744;28;20319;-82
2020/12/22 07:12:47;;;;;;;0.50;0.50;;;;;;;;;;5097328;28;20601;-82
2020/12/22 07:15:13;;;;;;;0.40;0.40;;;;;;;;;;5097223;28;20240;-82
2020/12/22 07:17:39;;;;;;;0.40;0.40;;;;;;;;;;5097389;28;20242;-80
2020/12/22 07:20:05;;;;;;;0.40;0.40;;;;;;;;;;5097238;28;20233;-81
2020/12/22 07:22:31;;;;;;;0.47;0.40;;;;;;;;;;5097073;28;20233;-82
2020/12/22 07:24:58;;;;;;;0.20;0.20;;;;;;;;;;5096810;28;20210;-82
2020/12/22 07:27:25;;;;;;;0.53;0.53;;;;;;;;;;5096758;28;20637;-82
2020/12/22 07:29:51;;;;;;;0.63;0.40;;;;;;;;;;5097179;28;20233;-82
2020/12/22 07:32:18;;;;;;;1.53;0.50;;;;;;;;;;5097247;28;20476;-82
2020/12/22 07:34:44;;;;;;;0.67;0.60;;;;;;;;;;5096720;28;20257;-82
2020/12/22 07:37:11;;;;;;;1.33;0.60;;;;;;;;;;5096432;28;20539;-81
2020/12/22 07:39:37;;;;;;;0.60;0.60;;;;;;;;;;5096936;28;20222;-81
2020/12/22 07:42:10;;;;;;;0.30;0.30;;;;;;;;;;5096207;28;20237;-79
2020/12/22 07:44:37;;;;;;;0.40;0.40;;;;;;;;;;5096628;28;20205;-80
2020/12/22 07:47:04;;;;;;;0.50;0.50;;;;;;;;;;5096158;28;20263;-81
2020/12/22 07:49:30;;;;;;;0.57;0.40;;;;;;;;;;5096686;28;20205;-81
2020/12/22 07:51:56;;;;;;;0.83;0.40;;;;;;;;;;5096704;28;20237;-80
2020/12/22 07:54:25;;;;;;;0.43;0.43;;;;;;;;;;5096628;28;20241;-81
2020/12/22 07:56:52;;;;;;;0.93;0.50;;;;;;;;;;5095714;28;20343;-81
2020/12/22 07:59:18;;;;;;;0.40;0.40;;;;;;;;;;5096744;28;20264;-81
2020/12/22 08:01:46;;;;;;;0.33;0.33;;;;;;;;;;5096275;28;20229;-81
2020/12/22 08:04:13;;;;;;;2.90;0.57;;;;;;;;;;5095719;28;20641;-81
2020/12/22 08:06:39;;;;;;;0.40;0.40;;;;;;;;;;5095163;28;20240;-80
2020/12/22 08:09:05;;;;;;;1.23;0.47;;;;;;;;;;5096457;28;20236;-82
2020/12/22 08:11:32;;;;;;;0.43;0.43;;;;;;;;;;5096278;28;20233;-83
2020/12/22 08:14:00;;;;;;;1.17;0.40;;;;;;;;;;5096415;28;20618;-81
2020/12/22 08:16:28;;;;;;;0.33;0.33;;;;;;;;;;5096403;28;20222;-80
2020/12/22 08:18:55;;;;;;;5.40;0.30;;;;;;;;;;5096080;28;20630;-80
2020/12/22 08:21:22;;;;;;;0.30;0.30;;;;;;;;;;5096103;28;20221;-81
2020/12/22 08:23:48;;;;;;;0.53;0.53;;;;;;;;;;5096357;28;20209;-81
2020/12/22 08:26:17;;;;;;;0.30;0.30;;;;;;;;;;5095763;28;20637;-81
2020/12/22 08:28:50;;;;;;;0.30;0.30;;;;;;;;;;5095999;28;20229;-81
2020/12/22 08:31:18;;;;;;;0.37;0.37;;;;;;;;;;5095621;28;20610;-82
2020/12/22 08:33:50;;;;;;;0.47;0.40;;;;;;;;;;5095459;28;20225;-81
2020/12/22 08:36:17;;;;;;;1.23;1.13;;;;;;;;;;5094173;28;20263;-79
2020/12/22 08:38:43;;;;;;;0.73;0.40;;;;;;;;;;5096036;28;20246;-81
2020/12/22 08:41:14;;;;;;;1.17;0.73;;;;;;;;;;5095457;28;20202;-82
2020/12/22 08:43:46;;;;;;;0.83;0.50;;;;;;;;;;5095999;28;20241;-81
2020/12/22 08:46:12;;;;;;;1.63;0.50;;;;;;;;;;5095510;28;20237;-80
2020/12/22 08:48:39;;;;;;;0.30;0.30;;;;;;;;;;5095431;28;20222;-82
2020/12/22 08:51:06;;;;;;;0.30;0.30;;;;;;;;;;5095150;28;20221;-82
2020/12/22 08:53:32;;;;;;;0.30;0.30;;;;;;;;;;5095955;28;20240;-81
2020/12/22 08:56:05;;;;;;;0.30;0.30;;;;;;;;;;5095191;28;20258;-81
2020/12/22 08:58:31;;;;;;;0.73;0.30;;;;;;;;;;5095419;28;20638;-81
2020/12/22 09:00:57;;;;;;;0.20;0.20;;;;;;;;;;5095126;28;20233;-83
2020/12/22 09:03:23;;;;;;;1.23;0.50;;;;;;;;;;5095220;28;20240;-82
2020/12/22 09:05:50;;;;;;;0.70;0.67;;;;;;;;;;5094664;28;20240;-80
2020/12/22 09:08:16;;;;;;;0.70;0.60;;;;;;;;;;5094946;28;20218;-82
2020/12/22 09:10:47;;;;;;;0.93;0.60;;;;;;;;;;5095230;28;20472;-82
2020/12/22 09:13:14;;;;;;;0.57;0.30;;;;;;;;;;5095495;28;20482;-82
2020/12/22 09:15:52;;;;;;;0.40;0.30;;;;;;;;;;5094775;28;20229;-80
2020/12/22 09:18:18;;;;;;;1.50;1.20;;;;;;;;;;5095361;28;20253;-80
2020/12/22 09:20:44;;;;;;;0.97;0.90;;;;;;;;;;5095194;28;20215;-82
2020/12/22 09:23:10;;;;;;;0.97;0.67;;;;;;;;;;5094887;28;20622;-82
2020/12/22 09:25:36;;;;;;;0.70;0.70;;;;;;;;;;5094638;28;20229;-83
2020/12/22 09:28:03;;;;;;;0.40;0.40;;;;;;;;;;5095140;28;20572;-84
2020/12/22 09:30:29;;;;;;;0.57;0.57;;;;;;;;;;5095150;28;20240;-81
2020/12/22 09:32:59;;;;;;;0.30;0.30;;;;;;;;;;5094942;28;20229;-84
2020/12/22 09:35:25;;;;;;;3.70;0.53;;;;;;;;;;5095042;28;20205;-82
2020/12/22 09:37:51;;;;;;;0.50;0.40;;;;;;;;;;5095024;28;20249;-81
2020/12/22 09:40:17;;;;;;;1.27;0.30;;;;;;;;;;5094119;28;20234;-82
2020/12/22 09:42:43;;;;;;;1.30;0.50;;;;;;;;;;5094126;28;20229;-83
2020/12/22 09:45:10;;;;;;;0.40;0.40;;;;;;;;;;5094096;28;20235;-82
2020/12/22 09:47:36;;;;;;;0.40;0.40;;;;;;;;;;5094322;28;20233;-82
2020/12/22 09:50:03;;;;;;;0.93;0.50;;;;;;;;;;5095040;28;20512;-82
2020/12/22 09:52:29;;;;;;;1.40;0.40;;;;;;;;;;5095045;28;20233;-81
2020/12/22 09:54:55;;;;;;;0.30;0.30;;;;;;;;;;5094908;28;20629;-81
2020/12/22 09:57:21;;;;;;;0.37;0.37;;;;;;;;;;5094879;28;20253;-82
2020/12/22 09:59:47;;;;;;;0.37;0.37;;;;;;;;;;5094599;28;20706;-80
2020/12/22 10:02:14;;;;;;;1.77;0.60;;;;;;;;;;5094741;28;20238;-83
2020/12/22 10:04:40;;;;;;;2.47;0.70;;;;;;;;;;5094385;28;20233;-83
2020/12/22 10:07:06;;;;;;;0.57;0.40;;;;;;;;;;5094459;28;20241;-81
2020/12/22 10:09:32;;;;;;;0.60;0.40;;;;;;;;;;5093426;28;20633;-86
2020/12/22 10:11:58;;;;;;;2.10;0.40;;;;;;;;;;5093529;28;20217;-81
2020/12/22 10:14:24;;;;;;;0.33;0.33;;;;;;;;;;5094585;28;20230;-84
2020/12/22 10:16:50;;;;;;;0.50;0.50;;;;;;;;;;5094512;28;20221;-80
2020/12/22 10:19:17;;;;;;;1.60;0.50;;;;;;;;;;5094202;28;20252;-79
2020/12/22 10:21:43;;;;;;;0.60;0.60;;;;;;;;;;5093231;28;20230;-79
2020/12/22 10:24:09;;;;;;;0.50;0.50;;;;;;;;;;5094117;28;20222;-81
2020/12/22 10:26:35;;;;;;;0.60;0.60;;;;;;;;;;5095275;28;20224;-81
2020/12/22 10:29:02;;;;;;;0.50;0.50;;;;;;;;;;5097983;28;20229;-82
2020/12/22 10:31:28;;;;;;;0.60;0.53;;;;;;;;;;5097584;28;20222;-81
2020/12/22 10:33:56;;;;;;;0.73;0.73;;;;;;;;;;5097923;28;20291;-81
2020/12/22 10:36:23;;;;;;;0.70;0.70;;;;;;;;;;5097874;28;20226;-82
2020/12/22 10:38:49;;;;;;;0.77;0.60;;;;;;;;;;5097825;28;20245;-81
2020/12/22 10:41:16;;;;;;;1.13;0.90;;;;;;;;;;5097020;28;20696;-79
2020/12/22 10:43:42;;;;;;;0.70;0.70;;;;;;;;;;5097673;28;20228;-79
2020/12/22 10:46:08;;;;;;;1.13;0.70;;;;;;;;;;5097263;28;20241;-79
2020/12/22 10:48:34;;;;;;;2.53;0.60;;;;;;;;;;5097861;28;20803;-81
2020/12/22 10:51:00;;;;;;;0.50;0.50;;;;;;;;;;5097479;28;20243;-80
2020/12/22 10:53:27;;;;;;;0.43;0.43;;;;;;;;;;5097513;28;20226;-80
2020/12/22 10:55:54;;;;;;;0.43;0.43;;;;;;;;;;5096294;28;20618;-82
2020/12/22 10:58:20;;;;;;;2.00;0.60;;;;;;;;;;5097197;28;20311;-81
2020/12/22 11:00:46;;;;;;;0.50;0.50;;;;;;;;;;5096991;28;20241;-81
2020/12/22 11:03:16;;;;;;;0.60;0.60;;;;;;;;;;5097178;28;20244;-81
2020/12/22 11:08:27;;;;;;;0.60;0.60;;;;;;;;;;5097346;28;20204;-81
2020/12/22 11:10:53;;;;;;;0.50;0.50;;;;;;;;;;5097270;28;20232;-81
2020/12/22 11:13:19;;;;;;;0.40;0.40;;;;;;;;;;5097267;28;20240;-82
2020/12/22 11:15:45;;;;;;;1.63;0.60;;;;;;;;;;5097514;28;20229;-81
2020/12/22 11:18:12;;;;;;;0.50;0.50;;;;;;;;;;5097345;28;20275;-82
2020/12/22 11:20:38;;;;;;;0.40;0.40;;;;;;;;;;5097360;28;20237;-81
2020/12/22 11:23:04;;;;;;;1.03;0.50;;;;;;;;;;5097130;28;20226;-82
2020/12/22 11:25:31;;;;;;;0.40;0.40;;;;;;;;;;5097056;28;20807;-82
2020/12/22 11:27:57;;;;;;;0.50;0.50;;;;;;;;;;5096702;28;20229;-82
2020/12/22 11:30:23;;;;;;;1.03;0.50;;;;;;;;;;5097057;28;20233;-81
2020/12/22 11:32:49;;;;;;;0.47;0.47;;;;;;;;;;5096841;28;20229;-82
2020/12/22 11:35:15;;;;;;;0.23;0.23;;;;;;;;;;5096928;28;20610;-82
2020/12/22 11:37:42;;;;;;;0.97;0.33;;;;;;;;;;5096333;28;20237;-83
2020/12/22 11:40:08;;;;;;;0.50;0.50;;;;;;;;;;5096959;28;20249;-81
2020/12/22 11:42:36;;;;;;;0.30;0.30;;;;;;;;;;5096186;28;20234;-83
2020/12/22 11:45:02;;;;;;;1.27;0.20;;;;;;;;;;5097966;28;20213;-79
2020/12/22 11:47:28;;;;;;;2.20;0.40;;;;;;;;;;5096524;28;20225;-84
2020/12/22 11:49:54;;;;;;;0.20;0.20;;;;;;;;;;5096345;28;20237;-82
2020/12/22 11:52:21;;;;;;;0.30;0.30;;;;;;;;;;5129133;27;20228;-80
2020/12/22 11:54:47;;;;;;;0.43;0.43;;;;;;;;;;5096383;28;20508;-82
2020/12/22 11:57:13;;;;;;;0.57;0.47;;;;;;;;;;5096273;28;20229;-82
2020/12/22 11:59:40;;;;;;;0.30;0.30;;;;;;;;;;5096273;28;20241;-84
2020/12/22 12:02:06;;;;;;;0.40;0.40;;;;;;;;;;5096353;28;20210;-85
2020/12/22 12:04:33;;;;;;;0.60;0.50;;;;;;;;;;5096288;28;20288;-89
2020/12/22 12:06:59;;;;;;;0.47;0.47;;;;;;;;;;5096324;28;20234;-83
2020/12/22 12:09:25;;;;;;;2.10;0.40;;;;;;;;;;5096227;28;20222;-84
2020/12/22 12:11:52;;;;;;;0.37;0.37;;;;;;;;;;5095792;28;20233;-85
2020/12/22 12:14:18;;;;;;;0.50;0.40;;;;;;;;;;5096328;28;20205;-81
2020/12/22 12:16:46;;;;;;;0.70;0.40;;;;;;;;;;5095869;28;20240;-83
2020/12/22 12:19:12;;;;;;;0.80;0.70;;;;;;;;;;5096182;28;20276;-87
2020/12/22 12:21:38;;;;;;;0.50;0.50;;;;;;;;;;5095577;28;20213;-87
2020/12/22 12:24:05;;;;;;;0.40;0.40;;;;;;;;;;5095900;28;20233;-86
2020/12/22 12:26:31;;;;;;;0.60;0.50;;;;;;;;;;5094941;28;20225;-85
2020/12/22 12:28:57;;;;;;;0.40;0.40;;;;;;;;;;5095965;28;20197;-85
2020/12/22 12:31:24;;;;;;;0.93;0.50;;;;;;;;;;5094521;28;20266;-89
2020/12/22 12:33:51;;;;;;;0.97;0.40;;;;;;;;;;5095595;28;20249;-86
2020/12/22 12:36:17;;;;;;;0.50;0.50;;;;;;;;;;5095662;28;20238;-86
2020/12/22 12:38:43;;;;;;;0.47;0.47;;;;;;;;;;5096035;28;20253;-87
2020/12/22 12:41:10;;;;;;;0.63;0.63;;;;;;;;;;5095446;28;20506;-86
2020/12/22 12:43:36;;;;;;;0.30;0.30;;;;;;;;;;5095978;28;20644;-86
2020/12/22 12:46:04;;;;;;;0.30;0.20;;;;;;;;;;5095212;28;20233;-86
2020/12/22 12:48:30;;;;;;;0.40;0.40;;;;;;;;;;5094944;28;20508;-86
2020/12/22 12:50:57;;;;;;;0.30;0.20;;;;;;;;;;5095325;28;20237;-87
2020/12/22 12:53:23;;;;;;;0.37;0.37;;;;;;;;;;5093965;28;20209;-87
2020/12/22 12:55:49;;;;;;;0.20;0.20;;;;;;;;;;5093883;28;20329;-86
2020/12/22 12:58:15;;;;;;;0.30;0.30;;;;;;;;;;5094910;28;20248;-85
2020/12/22 13:00:41;;;;;;;0.27;0.27;;;;;;;;;;5095166;28;20547;-86
2020/12/22 13:03:07;;;;;;;0.20;0.20;;;;;;;;;;5093302;28;20228;-86
2020/12/22 13:05:33;;;;;;;0.30;0.30;;;;;;;;;;5094824;28;20538;-85
2020/12/22 13:08:01;;;;;;;1.27;0.50;;;;;;;;;;5094672;28;20237;-84
2020/12/22 13:10:27;;;;;;;0.53;0.30;;;;;;;;;;5095375;28;20233;-81
2020/12/22 13:12:53;;;;;;;0.30;0.30;;;;;;;;;;5095245;28;20252;-85
2020/12/22 13:15:20;;;;;;;1.80;0.40;;;;;;;;;;5095195;28;20229;-85
2020/12/22 13:17:46;;;;;;;1.70;0.30;;;;;;;;;;5095185;28;20226;-82
2020/12/22 13:20:12;;;;;;;0.53;0.40;;;;;;;;;;5095089;28;20256;-86
2020/12/22 13:22:38;;;;;;;0.50;0.50;;;;;;;;;;5094877;28;20618;-86
2020/12/22 13:25:05;;;;;;;0.40;0.40;;;;;;;;;;5094960;28;20241;-84
2020/12/22 13:27:32;;;;;;;0.53;0.53;;;;;;;;;;5094738;28;20233;-83
2020/12/22 13:29:58;;;;;;;0.60;0.60;;;;;;;;;;5094686;28;20229;-84
2020/12/22 13:32:24;;;;;;;0.70;0.70;;;;;;;;;;5094662;28;20228;-84
2020/12/22 13:34:50;;;;;;;2.93;0.83;;;;;;;;;;5094567;28;20249;-85
2020/12/22 13:37:16;;;;;;;0.60;0.60;;;;;;;;;;5094666;28;20225;-85
2020/12/22 13:39:42;;;;;;;0.57;0.57;;;;;;;;;;5094881;28;20257;-84
2020/12/22 13:42:09;;;;;;;0.57;0.57;;;;;;;;;;5094508;28;20241;-84
2020/12/22 13:44:35;;;;;;;0.50;0.50;;;;;;;;;;5094983;28;20531;-85
2020/12/22 13:47:02;;;;;;;0.40;0.40;;;;;;;;;;5093205;28;20229;-85
2020/12/22 13:49:28;;;;;;;1.13;0.60;;;;;;;;;;5094615;28;20226;-85
2020/12/22 13:51:55;;;;;;;0.33;0.33;;;;;;;;;;5094811;28;20236;-85
2020/12/22 13:54:21;;;;;;;0.50;0.50;;;;;;;;;;5095073;28;20234;-85
2020/12/22 13:56:47;;;;;;;0.40;0.40;;;;;;;;;;5094398;28;20237;-86
2020/12/22 13:59:14;;;;;;;0.47;0.47;;;;;;;;;;5094629;28;20303;-84
2020/12/22 14:01:40;;;;;;;0.63;0.53;;;;;;;;;;5098296;28;20240;-86
2020/12/22 14:04:06;;;;;;;0.50;0.50;;;;;;;;;;5098517;28;20233;-85
2020/12/22 14:06:32;;;;;;;0.50;0.50;;;;;;;;;;5097364;28;20221;-86
2020/12/22 14:08:58;;;;;;;0.60;0.60;;;;;;;;;;5098864;28;20236;-83
2020/12/22 14:11:26;;;;;;;0.60;0.60;;;;;;;;;;5098277;28;20229;-85
2020/12/22 14:13:52;;;;;;;0.50;0.50;;;;;;;;;;5098403;28;20213;-86
2020/12/22 14:16:19;;;;;;;0.80;0.80;;;;;;;;;;5098614;28;20230;-82
2020/12/22 14:18:46;;;;;;;0.80;0.73;;;;;;;;;;5097627;28;20237;-84
2020/12/22 14:21:15;;;;;;;0.70;0.70;;;;;;;;;;5096215;28;20256;-81
2020/12/22 14:23:41;;;;;;;0.70;0.70;;;;;;;;;;5097470;28;20237;-83
2020/12/22 14:26:08;;;;;;;0.70;0.70;;;;;;;;;;5097076;28;20256;-82
2020/12/22 14:28:34;;;;;;;1.87;0.80;;;;;;;;;;5097506;28;20229;-84
2020/12/22 14:31:00;;;;;;;0.60;0.60;;;;;;;;;;5095786;28;20235;-83
2020/12/22 14:33:27;;;;;;;1.30;0.80;;;;;;;;;;5097120;28;20252;-82
2020/12/22 14:35:53;;;;;;;0.93;0.50;;;;;;;;;;5097118;28;20240;-82
2020/12/22 14:38:19;;;;;;;0.60;0.60;;;;;;;;;;5097377;28;20578;-80
2020/12/22 14:40:45;;;;;;;0.60;0.60;;;;;;;;;;5096328;28;20252;-83
2020/12/22 14:43:12;;;;;;;0.40;0.40;;;;;;;;;;5097484;28;20229;-83